sensor_id;sensor_type;location;lat;lon;timestamp;temperature;humidity
76104;HTU21D;64831;44.870;37.336;2023-05-29T00:00:20;20.43;77.69
76104;HTU21D;64831;44.870;37.336;2023-05-29T00:02:50;20.49;77.41
76104;HTU21D;64831;44.870;37.336;2023-05-29T00:05:16;20.56;77.18
76104;HTU21D;64831;44.870;37.336;2023-05-29T00:07:43;20.59;76.99
76104;HTU21D;64831;44.870;37.336;2023-05-29T00:10:10;20.62;76.76
76104;HTU21D;64831;44.870;37.336;2023-05-29T00:12:37;20.66;76.49
76104;HTU21D;64831;44.870;37.336;2023-05-29T00:15:04;20.69;76.31
76104;HTU21D;64831;44.870;37.336;2023-05-29T00:17:30;20.72;76.10
76104;HTU21D;64831;44.870;37.336;2023-05-29T00:19:59;20.73;75.90
76104;HTU21D;64831;44.870;37.336;2023-05-29T00:22:27;20.75;75.85
76104;HTU21D;64831;44.870;37.336;2023-05-29T00:24:53;20.76;75.73
76104;HTU21D;64831;44.870;37.336;2023-05-29T00:27:19;20.77;75.48
76104;HTU21D;64831;44.870;37.336;2023-05-29T00:29:46;20.75;75.55
76104;HTU21D;64831;44.870;37.336;2023-05-29T00:32:12;20.74;75.41
76104;HTU21D;64831;44.870;37.336;2023-05-29T00:34:38;20.74;75.39
76104;HTU21D;64831;44.870;37.336;2023-05-29T00:37:04;20.74;75.51
76104;HTU21D;64831;44.870;37.336;2023-05-29T00:39:30;20.74;75.42
76104;HTU21D;64831;44.870;37.336;2023-05-29T00:41:56;20.76;75.25
76104;HTU21D;64831;44.870;37.336;2023-05-29T00:44:22;20.74;75.06
76104;HTU21D;64831;44.870;37.336;2023-05-29T00:46:51;20.70;75.21
76104;HTU21D;64831;44.870;37.336;2023-05-29T00:49:20;20.65;75.15
76104;HTU21D;64831;44.870;37.336;2023-05-29T00:51:48;20.62;75.10
76104;HTU21D;64831;44.870;37.336;2023-05-29T00:54:20;20.56;75.25
76104;HTU21D;64831;44.870;37.336;2023-05-29T00:56:47;20.53;75.44
76104;HTU21D;64831;44.870;37.336;2023-05-29T00:59:13;20.49;75.84
76104;HTU21D;64831;44.870;37.336;2023-05-29T01:01:40;20.47;75.92
76104;HTU21D;64831;44.870;37.336;2023-05-29T01:04:06;20.48;75.60
76104;HTU21D;64831;44.870;37.336;2023-05-29T01:06:35;20.44;75.89
76104;HTU21D;64831;44.870;37.336;2023-05-29T01:09:02;20.43;75.79
76104;HTU21D;64831;44.870;37.336;2023-05-29T01:14:15;20.37;75.84
76104;HTU21D;64831;44.870;37.336;2023-05-29T01:17:03;20.35;76.01
76104;HTU21D;64831;44.870;37.336;2023-05-29T01:27:47;20.20;77.14
76104;HTU21D;64831;44.870;37.336;2023-05-29T01:30:15;20.19;77.15
76104;HTU21D;64831;44.870;37.336;2023-05-29T01:32:42;20.20;77.23
76104;HTU21D;64831;44.870;37.336;2023-05-29T01:35:09;20.19;77.26
76104;HTU21D;64831;44.870;37.336;2023-05-29T01:37:35;20.19;77.38
76104;HTU21D;64831;44.870;37.336;2023-05-29T01:40:01;20.18;77.47
76104;HTU21D;64831;44.870;37.336;2023-05-29T01:42:29;20.19;77.31
76104;HTU21D;64831;44.870;37.336;2023-05-29T01:44:57;20.18;77.40
76104;HTU21D;64831;44.870;37.336;2023-05-29T01:47:23;20.18;77.41
76104;HTU21D;64831;44.870;37.336;2023-05-29T01:49:51;20.17;77.56
76104;HTU21D;64831;44.870;37.336;2023-05-29T01:52:17;20.18;77.50
76104;HTU21D;64831;44.870;37.336;2023-05-29T01:54:44;20.18;77.56
76104;HTU21D;64831;44.870;37.336;2023-05-29T01:57:11;20.16;77.34
76104;HTU21D;64831;44.870;37.336;2023-05-29T01:59:38;20.13;77.92
76104;HTU21D;64831;44.870;37.336;2023-05-29T02:02:08;20.09;78.16
76104;HTU21D;64831;44.870;37.336;2023-05-29T02:04:34;20.05;78.37
76104;HTU21D;64831;44.870;37.336;2023-05-29T02:07:00;20.04;78.32
76104;HTU21D;64831;44.870;37.336;2023-05-29T02:09:26;20.01;78.45
76104;HTU21D;64831;44.870;37.336;2023-05-29T02:11:52;20.01;78.31
76104;HTU21D;64831;44.870;37.336;2023-05-29T02:14:18;19.95;78.57
76104;HTU21D;64831;44.870;37.336;2023-05-29T02:16:44;19.91;78.50
76104;HTU21D;64831;44.870;37.336;2023-05-29T02:19:10;19.90;78.68
76104;HTU21D;64831;44.870;37.336;2023-05-29T02:21:40;19.87;78.65
76104;HTU21D;64831;44.870;37.336;2023-05-29T02:24:08;19.84;79.04
76104;HTU21D;64831;44.870;37.336;2023-05-29T02:26:34;19.84;79.16
76104;HTU21D;64831;44.870;37.336;2023-05-29T02:29:03;19.85;79.01
76104;HTU21D;64831;44.870;37.336;2023-05-29T02:31:31;19.85;79.04
76104;HTU21D;64831;44.870;37.336;2023-05-29T02:33:57;19.84;79.13
76104;HTU21D;64831;44.870;37.336;2023-05-29T02:36:23;19.85;79.01
76104;HTU21D;64831;44.870;37.336;2023-05-29T02:38:50;19.84;79.20
76104;HTU21D;64831;44.870;37.336;2023-05-29T02:41:16;19.82;79.21
76104;HTU21D;64831;44.870;37.336;2023-05-29T02:43:42;19.79;79.48
76104;HTU21D;64831;44.870;37.336;2023-05-29T02:46:08;19.79;79.33
76104;HTU21D;64831;44.870;37.336;2023-05-29T02:48:34;19.80;79.12
76104;HTU21D;64831;44.870;37.336;2023-05-29T02:51:00;19.80;78.93
76104;HTU21D;64831;44.870;37.336;2023-05-29T02:53:26;19.79;79.13
76104;HTU21D;64831;44.870;37.336;2023-05-29T02:55:52;19.82;79.01
76104;HTU21D;64831;44.870;37.336;2023-05-29T02:58:18;19.84;79.06
76104;HTU21D;64831;44.870;37.336;2023-05-29T03:00:44;19.88;79.04
76104;HTU21D;64831;44.870;37.336;2023-05-29T03:03:10;19.92;79.04
76104;HTU21D;64831;44.870;37.336;2023-05-29T03:05:38;19.97;79.60
76104;HTU21D;64831;44.870;37.336;2023-05-29T03:08:04;20.03;79.49
76104;HTU21D;64831;44.870;37.336;2023-05-29T03:10:30;20.11;79.54
76104;HTU21D;64831;44.870;37.336;2023-05-29T03:12:56;20.17;79.13
76104;HTU21D;64831;44.870;37.336;2023-05-29T03:15:22;20.22;79.21
76104;HTU21D;64831;44.870;37.336;2023-05-29T03:17:48;20.27;79.08
76104;HTU21D;64831;44.870;37.336;2023-05-29T03:20:17;20.29;79.24
76104;HTU21D;64831;44.870;37.336;2023-05-29T03:22:44;20.32;79.11
76104;HTU21D;64831;44.870;37.336;2023-05-29T03:25:10;20.36;78.79
76104;HTU21D;64831;44.870;37.336;2023-05-29T03:27:36;20.37;78.74
76104;HTU21D;64831;44.870;37.336;2023-05-29T03:30:11;20.41;78.60
76104;HTU21D;64831;44.870;37.336;2023-05-29T03:32:37;20.41;78.74
76104;HTU21D;64831;44.870;37.336;2023-05-29T03:35:04;20.46;78.47
76104;HTU21D;64831;44.870;37.336;2023-05-29T03:37:30;20.48;78.36
76104;HTU21D;64831;44.870;37.336;2023-05-29T03:39:57;20.48;78.50
76104;HTU21D;64831;44.870;37.336;2023-05-29T03:42:23;20.50;78.26
76104;HTU21D;64831;44.870;37.336;2023-05-29T03:44:51;20.57;77.87
76104;HTU21D;64831;44.870;37.336;2023-05-29T03:47:16;20.63;77.27
76104;HTU21D;64831;44.870;37.336;2023-05-29T03:49:44;20.69;76.89
76104;HTU21D;64831;44.870;37.336;2023-05-29T03:52:09;20.74;76.24
76104;HTU21D;64831;44.870;37.336;2023-05-29T03:54:36;20.79;76.00
76104;HTU21D;64831;44.870;37.336;2023-05-29T03:57:03;20.83;75.53
76104;HTU21D;64831;44.870;37.336;2023-05-29T03:59:28;20.83;74.92
76104;HTU21D;64831;44.870;37.336;2023-05-29T04:01:54;20.83;74.76
76104;HTU21D;64831;44.870;37.336;2023-05-29T04:04:20;20.83;74.58
76104;HTU21D;64831;44.870;37.336;2023-05-29T04:06:46;20.81;74.36
76104;HTU21D;64831;44.870;37.336;2023-05-29T04:09:12;20.80;74.32
76104;HTU21D;64831;44.870;37.336;2023-05-29T04:11:38;20.85;74.26
76104;HTU21D;64831;44.870;37.336;2023-05-29T04:14:05;20.88;74.23
76104;HTU21D;64831;44.870;37.336;2023-05-29T04:16:31;20.88;74.20
76104;HTU21D;64831;44.870;37.336;2023-05-29T04:18:58;20.89;74.16
76104;HTU21D;64831;44.870;37.336;2023-05-29T04:21:26;20.93;74.08
76104;HTU21D;64831;44.870;37.336;2023-05-29T04:23:53;20.93;73.98
76104;HTU21D;64831;44.870;37.336;2023-05-29T04:26:21;20.96;73.95
76104;HTU21D;64831;44.870;37.336;2023-05-29T04:28:52;20.98;73.90
76104;HTU21D;64831;44.870;37.336;2023-05-29T04:31:24;20.98;73.92
76104;HTU21D;64831;44.870;37.336;2023-05-29T04:33:53;20.99;73.92
76104;HTU21D;64831;44.870;37.336;2023-05-29T04:36:23;20.99;74.02
76104;HTU21D;64831;44.870;37.336;2023-05-29T04:38:53;20.99;74.05
76104;HTU21D;64831;44.870;37.336;2023-05-29T04:41:20;21.01;74.11
76104;HTU21D;64831;44.870;37.336;2023-05-29T04:43:55;21.06;74.06
76104;HTU21D;64831;44.870;37.336;2023-05-29T04:46:25;21.13;73.99
76104;HTU21D;64831;44.870;37.336;2023-05-29T04:48:51;21.16;73.93
76104;HTU21D;64831;44.870;37.336;2023-05-29T04:51:21;21.23;73.75
76104;HTU21D;64831;44.870;37.336;2023-05-29T04:53:50;21.30;73.44
76104;HTU21D;64831;44.870;37.336;2023-05-29T04:56:17;21.35;73.25
76104;HTU21D;64831;44.870;37.336;2023-05-29T04:58:46;21.36;73.06
76104;HTU21D;64831;44.870;37.336;2023-05-29T05:01:12;21.40;73.02
76104;HTU21D;64831;44.870;37.336;2023-05-29T05:03:40;21.40;73.02
76104;HTU21D;64831;44.870;37.336;2023-05-29T05:06:07;21.44;72.88
76104;HTU21D;64831;44.870;37.336;2023-05-29T05:08:34;21.46;72.82
76104;HTU21D;64831;44.870;37.336;2023-05-29T05:11:00;21.48;72.77
76104;HTU21D;64831;44.870;37.336;2023-05-29T05:13:27;21.51;72.66
76104;HTU21D;64831;44.870;37.336;2023-05-29T05:15:53;21.51;72.67
76104;HTU21D;64831;44.870;37.336;2023-05-29T05:18:19;21.54;72.68
76104;HTU21D;64831;44.870;37.336;2023-05-29T05:20:54;21.54;72.74
76104;HTU21D;64831;44.870;37.336;2023-05-29T05:23:20;21.57;72.70
76104;HTU21D;64831;44.870;37.336;2023-05-29T05:25:47;21.58;72.58
76104;HTU21D;64831;44.870;37.336;2023-05-29T05:28:13;21.55;72.53
76104;HTU21D;64831;44.870;37.336;2023-05-29T05:30:39;21.57;72.54
76104;HTU21D;64831;44.870;37.336;2023-05-29T05:33:05;21.54;72.70
76104;HTU21D;64831;44.870;37.336;2023-05-29T05:35:31;21.58;72.60
76104;HTU21D;64831;44.870;37.336;2023-05-29T05:37:57;21.58;72.64
76104;HTU21D;64831;44.870;37.336;2023-05-29T05:40:25;21.60;72.57
76104;HTU21D;64831;44.870;37.336;2023-05-29T05:42:58;21.62;72.60
76104;HTU21D;64831;44.870;37.336;2023-05-29T05:45:41;21.64;72.51
76104;HTU21D;64831;44.870;37.336;2023-05-29T05:48:09;21.65;72.54
76104;HTU21D;64831;44.870;37.336;2023-05-29T05:50:36;21.68;72.55
76104;HTU21D;64831;44.870;37.336;2023-05-29T05:53:02;21.70;72.55
76104;HTU21D;64831;44.870;37.336;2023-05-29T05:55:28;21.76;72.61
76104;HTU21D;64831;44.870;37.336;2023-05-29T05:57:54;21.80;72.58
76104;HTU21D;64831;44.870;37.336;2023-05-29T06:00:23;21.88;72.49
76104;HTU21D;64831;44.870;37.336;2023-05-29T06:02:53;21.94;72.47
76104;HTU21D;64831;44.870;37.336;2023-05-29T06:05:31;22.02;72.40
76104;HTU21D;64831;44.870;37.336;2023-05-29T06:07:57;22.06;72.16
76104;HTU21D;64831;44.870;37.336;2023-05-29T06:10:23;22.09;72.03
76104;HTU21D;64831;44.870;37.336;2023-05-29T06:12:49;22.09;71.88
76104;HTU21D;64831;44.870;37.336;2023-05-29T06:15:22;22.09;71.80
76104;HTU21D;64831;44.870;37.336;2023-05-29T06:17:48;22.07;71.77
76104;HTU21D;64831;44.870;37.336;2023-05-29T06:20:16;22.02;71.75
76104;HTU21D;64831;44.870;37.336;2023-05-29T06:22:42;21.98;71.81
76104;HTU21D;64831;44.870;37.336;2023-05-29T06:25:08;21.94;71.89
76104;HTU21D;64831;44.870;37.336;2023-05-29T06:27:35;21.93;72.06
76104;HTU21D;64831;44.870;37.336;2023-05-29T06:30:02;21.93;72.14
76104;HTU21D;64831;44.870;37.336;2023-05-29T06:32:28;21.94;72.31
76104;HTU21D;64831;44.870;37.336;2023-05-29T06:34:57;21.96;72.60
76104;HTU21D;64831;44.870;37.336;2023-05-29T06:37:22;21.99;72.66
76104;HTU21D;64831;44.870;37.336;2023-05-29T06:39:48;22.02;72.74
76104;HTU21D;64831;44.870;37.336;2023-05-29T06:42:15;22.03;72.77
76104;HTU21D;64831;44.870;37.336;2023-05-29T06:44:42;21.99;73.08
76104;HTU21D;64831;44.870;37.336;2023-05-29T06:47:09;21.98;72.98
76104;HTU21D;64831;44.870;37.336;2023-05-29T06:49:35;21.92;73.26
76104;HTU21D;64831;44.870;37.336;2023-05-29T06:52:02;21.88;73.35
76104;HTU21D;64831;44.870;37.336;2023-05-29T06:54:48;21.85;74.28
76104;HTU21D;64831;44.870;37.336;2023-05-29T06:57:13;21.84;74.20
76104;HTU21D;64831;44.870;37.336;2023-05-29T06:59:40;21.83;74.53
76104;HTU21D;64831;44.870;37.336;2023-05-29T07:02:07;21.83;74.70
76104;HTU21D;64831;44.870;37.336;2023-05-29T07:04:33;21.87;74.82
76104;HTU21D;64831;44.870;37.336;2023-05-29T07:07:00;21.90;74.99
76104;HTU21D;64831;44.870;37.336;2023-05-29T07:09:26;21.91;75.05
76104;HTU21D;64831;44.870;37.336;2023-05-29T07:11:53;21.90;75.00
76104;HTU21D;64831;44.870;37.336;2023-05-29T07:14:19;21.88;74.94
76104;HTU21D;64831;44.870;37.336;2023-05-29T07:16:45;21.81;75.09
76104;HTU21D;64831;44.870;37.336;2023-05-29T07:19:12;21.74;75.50
76104;HTU21D;64831;44.870;37.336;2023-05-29T07:21:40;21.65;75.90
76104;HTU21D;64831;44.870;37.336;2023-05-29T07:24:06;21.60;75.96
76104;HTU21D;64831;44.870;37.336;2023-05-29T07:26:34;21.55;76.28
76104;HTU21D;64831;44.870;37.336;2023-05-29T07:29:02;21.52;76.79
76104;HTU21D;64831;44.870;37.336;2023-05-29T07:31:28;21.55;76.94
76104;HTU21D;64831;44.870;37.336;2023-05-29T07:33:54;21.62;76.94
76104;HTU21D;64831;44.870;37.336;2023-05-29T07:36:20;21.67;76.79
76104;HTU21D;64831;44.870;37.336;2023-05-29T07:38:48;21.68;76.63
76104;HTU21D;64831;44.870;37.336;2023-05-29T07:41:16;21.62;76.86
76104;HTU21D;64831;44.870;37.336;2023-05-29T07:43:49;21.51;76.78
76104;HTU21D;64831;44.870;37.336;2023-05-29T07:46:19;21.39;77.31
76104;HTU21D;64831;44.870;37.336;2023-05-29T07:48:47;21.29;77.46
76104;HTU21D;64831;44.870;37.336;2023-05-29T07:51:13;21.21;77.35
76104;HTU21D;64831;44.870;37.336;2023-05-29T07:53:45;21.15;77.57
76104;HTU21D;64831;44.870;37.336;2023-05-29T07:56:12;21.07;77.79
76104;HTU21D;64831;44.870;37.336;2023-05-29T07:58:39;21.01;78.88
76104;HTU21D;64831;44.870;37.336;2023-05-29T08:01:07;20.99;78.73
76104;HTU21D;64831;44.870;37.336;2023-05-29T08:03:33;20.95;79.31
76104;HTU21D;64831;44.870;37.336;2023-05-29T08:06:20;20.91;79.18
76104;HTU21D;64831;44.870;37.336;2023-05-29T08:08:46;20.87;79.47
76104;HTU21D;64831;44.870;37.336;2023-05-29T08:11:13;20.87;79.78
76104;HTU21D;64831;44.870;37.336;2023-05-29T08:13:40;20.83;79.51
76104;HTU21D;64831;44.870;37.336;2023-05-29T08:16:06;20.83;79.75
76104;HTU21D;64831;44.870;37.336;2023-05-29T08:18:32;20.81;79.83
76104;HTU21D;64831;44.870;37.336;2023-05-29T08:20:59;20.78;79.94
76104;HTU21D;64831;44.870;37.336;2023-05-29T08:23:26;20.77;80.14
76104;HTU21D;64831;44.870;37.336;2023-05-29T08:25:52;20.72;80.67
76104;HTU21D;64831;44.870;37.336;2023-05-29T08:28:18;20.64;80.99
76104;HTU21D;64831;44.870;37.336;2023-05-29T08:30:44;20.54;81.32
76104;HTU21D;64831;44.870;37.336;2023-05-29T08:33:10;20.36;82.08
76104;HTU21D;64831;44.870;37.336;2023-05-29T08:35:36;20.29;81.65
76104;HTU21D;64831;44.870;37.336;2023-05-29T08:38:02;20.25;81.50
76104;HTU21D;64831;44.870;37.336;2023-05-29T08:40:28;20.17;81.72
76104;HTU21D;64831;44.870;37.336;2023-05-29T08:42:58;20.14;81.47
76104;HTU21D;64831;44.870;37.336;2023-05-29T08:45:25;20.11;81.32
76104;HTU21D;64831;44.870;37.336;2023-05-29T08:47:52;20.04;81.30
76104;HTU21D;64831;44.870;37.336;2023-05-29T08:50:20;20.01;81.26
76104;HTU21D;64831;44.870;37.336;2023-05-29T08:52:47;19.95;81.39
76104;HTU21D;64831;44.870;37.336;2023-05-29T08:55:13;19.91;81.46
76104;HTU21D;64831;44.870;37.336;2023-05-29T08:57:40;19.88;81.55
76104;HTU21D;64831;44.870;37.336;2023-05-29T09:00:08;19.85;82.17
76104;HTU21D;64831;44.870;37.336;2023-05-29T09:02:42;19.77;82.76
76104;HTU21D;64831;44.870;37.336;2023-05-29T09:05:14;19.74;82.72
76104;HTU21D;64831;44.870;37.336;2023-05-29T09:07:40;19.76;82.46
76104;HTU21D;64831;44.870;37.336;2023-05-29T09:10:09;19.76;82.46
76104;HTU21D;64831;44.870;37.336;2023-05-29T09:12:36;19.76;82.67
76104;HTU21D;64831;44.870;37.336;2023-05-29T09:15:02;19.70;83.00
76104;HTU21D;64831;44.870;37.336;2023-05-29T09:17:33;19.62;83.32
76104;HTU21D;64831;44.870;37.336;2023-05-29T09:19:59;19.58;83.38
76104;HTU21D;64831;44.870;37.336;2023-05-29T09:22:26;19.56;83.26
76104;HTU21D;64831;44.870;37.336;2023-05-29T09:24:52;19.57;83.07
76104;HTU21D;64831;44.870;37.336;2023-05-29T09:27:18;19.58;83.02
76104;HTU21D;64831;44.870;37.336;2023-05-29T09:29:45;19.60;82.92
76104;HTU21D;64831;44.870;37.336;2023-05-29T09:32:14;19.61;82.86
76104;HTU21D;64831;44.870;37.336;2023-05-29T09:34:42;19.65;83.06
76104;HTU21D;64831;44.870;37.336;2023-05-29T09:37:08;19.67;83.11
76104;HTU21D;64831;44.870;37.336;2023-05-29T09:42:07;19.69;82.94
76104;HTU21D;64831;44.870;37.336;2023-05-29T09:44:33;19.68;83.42
76104;HTU21D;64831;44.870;37.336;2023-05-29T09:46:59;19.68;83.28
76104;HTU21D;64831;44.870;37.336;2023-05-29T09:49:26;19.73;83.25
76104;HTU21D;64831;44.870;37.336;2023-05-29T09:51:56;19.79;83.08
76104;HTU21D;64831;44.870;37.336;2023-05-29T09:54:21;19.85;83.04
76104;HTU21D;64831;44.870;37.336;2023-05-29T09:56:47;19.86;82.90
76104;HTU21D;64831;44.870;37.336;2023-05-29T09:59:15;19.84;82.71
76104;HTU21D;64831;44.870;37.336;2023-05-29T10:01:44;19.81;82.58
76104;HTU21D;64831;44.870;37.336;2023-05-29T10:04:10;19.79;82.47
76104;HTU21D;64831;44.870;37.336;2023-05-29T10:06:38;19.77;82.47
76104;HTU21D;64831;44.870;37.336;2023-05-29T10:09:06;19.77;82.52
76104;HTU21D;64831;44.870;37.336;2023-05-29T10:11:43;19.73;82.81
76104;HTU21D;64831;44.870;37.336;2023-05-29T10:14:16;19.69;82.48
76104;HTU21D;64831;44.870;37.336;2023-05-29T10:16:43;19.62;83.07
76104;HTU21D;64831;44.870;37.336;2023-05-29T10:19:13;19.51;83.81
76104;HTU21D;64831;44.870;37.336;2023-05-29T10:21:41;19.44;84.31
76104;HTU21D;64831;44.870;37.336;2023-05-29T10:24:11;19.33;84.20
76104;HTU21D;64831;44.870;37.336;2023-05-29T10:26:39;19.29;83.70
76104;HTU21D;64831;44.870;37.336;2023-05-29T10:34:46;19.16;84.05
76104;HTU21D;64831;44.870;37.336;2023-05-29T10:40:08;19.03;84.33
76104;HTU21D;64831;44.870;37.336;2023-05-29T10:50:46;19.13;83.29
76104;HTU21D;64831;44.870;37.336;2023-05-29T10:53:31;19.07;83.41
76104;HTU21D;64831;44.870;37.336;2023-05-29T10:56:00;18.99;83.65
76104;HTU21D;64831;44.870;37.336;2023-05-29T10:58:27;18.94;83.80
76104;HTU21D;64831;44.870;37.336;2023-05-29T11:00:54;18.85;84.32
76104;HTU21D;64831;44.870;37.336;2023-05-29T11:03:29;18.79;84.43
76104;HTU21D;64831;44.870;37.336;2023-05-29T11:06:03;18.78;84.47
76104;HTU21D;64831;44.870;37.336;2023-05-29T11:11:13;18.69;85.52
76104;HTU21D;64831;44.870;37.336;2023-05-29T11:13:39;18.65;85.48
76104;HTU21D;64831;44.870;37.336;2023-05-29T11:18:47;18.59;85.60
76104;HTU21D;64831;44.870;37.336;2023-05-29T11:21:30;18.61;85.38
76104;HTU21D;64831;44.870;37.336;2023-05-29T11:24:02;18.61;86.00
76104;HTU21D;64831;44.870;37.336;2023-05-29T11:26:29;18.59;86.25
76104;HTU21D;64831;44.870;37.336;2023-05-29T11:29:00;18.59;86.43
76104;HTU21D;64831;44.870;37.336;2023-05-29T11:31:27;18.57;86.63
76104;HTU21D;64831;44.870;37.336;2023-05-29T11:33:59;18.53;86.98
76104;HTU21D;64831;44.870;37.336;2023-05-29T11:36:26;18.54;86.65
76104;HTU21D;64831;44.870;37.336;2023-05-29T11:38:53;18.51;86.91
76104;HTU21D;64831;44.870;37.336;2023-05-29T11:41:19;18.43;87.63
76104;HTU21D;64831;44.870;37.336;2023-05-29T11:43:56;18.41;87.73
76104;HTU21D;64831;44.870;37.336;2023-05-29T11:46:23;18.44;87.28
76104;HTU21D;64831;44.870;37.336;2023-05-29T11:48:52;18.50;87.06
76104;HTU21D;64831;44.870;37.336;2023-05-29T11:51:18;18.56;86.93
76104;HTU21D;64831;44.870;37.336;2023-05-29T11:53:46;18.65;86.93
76104;HTU21D;64831;44.870;37.336;2023-05-29T11:56:13;18.79;87.12
76104;HTU21D;64831;44.870;37.336;2023-05-29T11:58:39;18.95;86.97
76104;HTU21D;64831;44.870;37.336;2023-05-29T12:01:07;19.13;86.81
76104;HTU21D;64831;44.870;37.336;2023-05-29T12:03:43;19.31;86.51
76104;HTU21D;64831;44.870;37.336;2023-05-29T12:06:09;19.41;85.96
76104;HTU21D;64831;44.870;37.336;2023-05-29T12:08:38;19.54;85.67
76104;HTU21D;64831;44.870;37.336;2023-05-29T12:11:05;19.69;85.22
76104;HTU21D;64831;44.870;37.336;2023-05-29T12:13:31;19.81;84.73
76104;HTU21D;64831;44.870;37.336;2023-05-29T12:15:59;19.91;84.42
76104;HTU21D;64831;44.870;37.336;2023-05-29T12:18:26;20.05;84.53
76104;HTU21D;64831;44.870;37.336;2023-05-29T12:21:00;20.21;83.80
76104;HTU21D;64831;44.870;37.336;2023-05-29T12:23:28;20.30;83.20
76104;HTU21D;64831;44.870;37.336;2023-05-29T12:25:55;20.32;82.57
76104;HTU21D;64831;44.870;37.336;2023-05-29T12:28:21;20.36;82.40
76104;HTU21D;64831;44.870;37.336;2023-05-29T12:30:48;20.41;82.33
76104;HTU21D;64831;44.870;37.336;2023-05-29T12:33:31;20.51;82.41
76104;HTU21D;64831;44.870;37.336;2023-05-29T12:36:08;20.63;82.11
76104;HTU21D;64831;44.870;37.336;2023-05-29T12:38:49;20.69;81.75
76104;HTU21D;64831;44.870;37.336;2023-05-29T12:41:26;20.72;81.35
76104;HTU21D;64831;44.870;37.336;2023-05-29T12:44:00;20.70;80.60
76104;HTU21D;64831;44.870;37.336;2023-05-29T12:46:27;20.69;80.41
76104;HTU21D;64831;44.870;37.336;2023-05-29T12:48:54;20.68;80.29
76104;HTU21D;64831;44.870;37.336;2023-05-29T12:51:24;20.72;80.30
76104;HTU21D;64831;44.870;37.336;2023-05-29T12:53:50;20.77;80.29
76104;HTU21D;64831;44.870;37.336;2023-05-29T12:56:22;20.89;80.14
76104;HTU21D;64831;44.870;37.336;2023-05-29T12:58:50;20.96;79.27
76104;HTU21D;64831;44.870;37.336;2023-05-29T13:01:16;21.06;79.21
76104;HTU21D;64831;44.870;37.336;2023-05-29T13:03:42;21.18;79.16
76104;HTU21D;64831;44.870;37.336;2023-05-29T13:06:07;21.31;78.62
76104;HTU21D;64831;44.870;37.336;2023-05-29T13:08:34;21.36;77.76
76104;HTU21D;64831;44.870;37.336;2023-05-29T13:11:00;21.37;76.83
76104;HTU21D;64831;44.870;37.336;2023-05-29T13:13:26;21.40;76.59
76104;HTU21D;64831;44.870;37.336;2023-05-29T13:15:52;21.42;76.42
76104;HTU21D;64831;44.870;37.336;2023-05-29T13:18:17;21.42;76.09
76104;HTU21D;64831;44.870;37.336;2023-05-29T13:20:43;21.43;76.05
76104;HTU21D;64831;44.870;37.336;2023-05-29T13:23:09;21.42;75.82
76104;HTU21D;64831;44.870;37.336;2023-05-29T13:25:35;21.36;75.60
76104;HTU21D;64831;44.870;37.336;2023-05-29T13:28:01;21.28;75.36
76104;HTU21D;64831;44.870;37.336;2023-05-29T13:30:27;21.18;75.32
76104;HTU21D;64831;44.870;37.336;2023-05-29T13:32:53;21.08;75.18
76104;HTU21D;64831;44.870;37.336;2023-05-29T13:35:20;21.02;75.53
76104;HTU21D;64831;44.870;37.336;2023-05-29T13:37:46;20.95;75.70
76104;HTU21D;64831;44.870;37.336;2023-05-29T13:40:12;20.88;75.60
76104;HTU21D;64831;44.870;37.336;2023-05-29T13:42:39;20.76;75.78
76104;HTU21D;64831;44.870;37.336;2023-05-29T13:45:06;20.69;75.86
76104;HTU21D;64831;44.870;37.336;2023-05-29T13:47:33;20.60;75.97
76104;HTU21D;64831;44.870;37.336;2023-05-29T13:49:59;20.53;76.32
76104;HTU21D;64831;44.870;37.336;2023-05-29T13:52:26;20.50;76.58
76104;HTU21D;64831;44.870;37.336;2023-05-29T13:54:52;20.48;76.70
76104;HTU21D;64831;44.870;37.336;2023-05-29T13:57:18;20.49;76.76
76104;HTU21D;64831;44.870;37.336;2023-05-29T13:59:44;20.49;76.94
76104;HTU21D;64831;44.870;37.336;2023-05-29T14:02:11;20.55;77.43
76104;HTU21D;64831;44.870;37.336;2023-05-29T14:04:37;20.63;77.50
76104;HTU21D;64831;44.870;37.336;2023-05-29T14:07:04;20.73;77.56
76104;HTU21D;64831;44.870;37.336;2023-05-29T14:09:30;20.85;77.44
76104;HTU21D;64831;44.870;37.336;2023-05-29T14:11:58;20.95;77.34
76104;HTU21D;64831;44.870;37.336;2023-05-29T14:14:25;21.03;77.13
76104;HTU21D;64831;44.870;37.336;2023-05-29T14:16:51;21.08;76.54
76104;HTU21D;64831;44.870;37.336;2023-05-29T14:19:18;21.10;76.21
76104;HTU21D;64831;44.870;37.336;2023-05-29T14:21:44;21.15;76.06
76104;HTU21D;64831;44.870;37.336;2023-05-29T14:24:10;21.17;75.93
76104;HTU21D;64831;44.870;37.336;2023-05-29T14:26:37;21.18;75.78
76104;HTU21D;64831;44.870;37.336;2023-05-29T14:29:03;21.20;75.88
76104;HTU21D;64831;44.870;37.336;2023-05-29T14:31:29;21.24;75.88
76104;HTU21D;64831;44.870;37.336;2023-05-29T14:33:56;21.32;75.75
76104;HTU21D;64831;44.870;37.336;2023-05-29T14:36:21;21.37;75.57
76104;HTU21D;64831;44.870;37.336;2023-05-29T14:38:47;21.38;75.41
76104;HTU21D;64831;44.870;37.336;2023-05-29T14:41:15;21.38;75.41
76104;HTU21D;64831;44.870;37.336;2023-05-29T14:43:44;21.38;75.32
76104;HTU21D;64831;44.870;37.336;2023-05-29T14:46:09;21.38;75.28
76104;HTU21D;64831;44.870;37.336;2023-05-29T14:48:35;21.37;75.12
76104;HTU21D;64831;44.870;37.336;2023-05-29T14:51:01;21.37;75.41
76104;HTU21D;64831;44.870;37.336;2023-05-29T14:53:27;21.39;75.31
76104;HTU21D;64831;44.870;37.336;2023-05-29T14:55:53;21.39;75.23
76104;HTU21D;64831;44.870;37.336;2023-05-29T14:58:21;21.40;75.35
76104;HTU21D;64831;44.870;37.336;2023-05-29T15:00:47;21.39;75.12
76104;HTU21D;64831;44.870;37.336;2023-05-29T15:03:13;21.36;74.99
76104;HTU21D;64831;44.870;37.336;2023-05-29T15:05:39;21.34;74.91
76104;HTU21D;64831;44.870;37.336;2023-05-29T15:08:05;21.29;74.78
76104;HTU21D;64831;44.870;37.336;2023-05-29T15:10:31;21.22;74.87
76104;HTU21D;64831;44.870;37.336;2023-05-29T15:12:58;21.17;74.89
76104;HTU21D;64831;44.870;37.336;2023-05-29T15:15:24;21.13;74.96
76104;HTU21D;64831;44.870;37.336;2023-05-29T15:17:51;21.07;74.81
76104;HTU21D;64831;44.870;37.336;2023-05-29T15:20:24;21.02;74.83
76104;HTU21D;64831;44.870;37.336;2023-05-29T15:22:51;20.93;74.99
76104;HTU21D;64831;44.870;37.336;2023-05-29T15:25:19;20.89;75.23
76104;HTU21D;64831;44.870;37.336;2023-05-29T15:27:45;20.87;75.36
76104;HTU21D;64831;44.870;37.336;2023-05-29T15:32:40;20.84;75.53
76104;HTU21D;64831;44.870;37.336;2023-05-29T15:35:09;20.81;75.58
76104;HTU21D;64831;44.870;37.336;2023-05-29T15:37:36;20.79;75.67
76104;HTU21D;64831;44.870;37.336;2023-05-29T15:40:03;20.77;75.72
76104;HTU21D;64831;44.870;37.336;2023-05-29T15:42:31;20.75;75.87